Time;durP1;ratioP1;P1;durP2;ratioP2;P2;SDS_P1;SDS_P2;PMS_P1;PMS_P2;Temp;Humidity;BMP_temperature;BMP_pressure;BME280_temperature;BME280_humidity;BME280_pressure;Samples;Min_cycle;Max_cycle;Signal;HPM_P1;HPM_P2
2021/11/10 00:02:23;;;;;;;9.20;5.50;;;9.80;74.70;;;;;;4974991;28;20067;-75
2021/11/10 00:04:50;;;;;;;9.05;5.20;;;9.80;75.00;;;;;;4974564;28;20546;-80
2021/11/10 00:07:17;;;;;;;7.20;5.45;;;9.70;74.90;;;;;;4990338;28;20081;-75
2021/11/10 00:09:44;;;;;;;6.65;4.85;;;9.80;75.10;;;;;;4957354;28;20050;-80
2021/11/10 00:12:11;;;;;;;8.48;5.30;;;9.80;75.00;;;;;;4974231;28;20459;-74
2021/11/10 00:14:39;;;;;;;8.10;4.38;;;9.80;74.80;;;;;;4990242;28;20089;-75
2021/11/10 00:17:06;;;;;;;7.70;5.32;;;9.80;76.10;;;;;;4973579;28;20077;-80
2021/11/10 00:19:33;;;;;;;5.32;3.65;;;9.80;74.60;;;;;;4974227;28;20076;-75
2021/11/10 00:22:01;;;;;;;5.13;3.50;;;9.80;74.20;;;;;;4974353;28;20376;-79
2021/11/10 00:24:28;;;;;;;6.78;4.13;;;9.90;73.80;;;;;;4973580;28;20143;-80
2021/11/10 00:26:55;;;;;;;4.53;3.35;;;9.90;73.40;;;;;;4974078;28;20039;-80
2021/11/10 00:29:22;;;;;;;6.45;4.05;;;9.90;72.90;;;;;;4974389;28;20125;-78
2021/11/10 00:31:49;;;;;;;5.53;3.60;;;10.00;72.40;;;;;;4989145;28;20070;-75
2021/11/10 00:34:16;;;;;;;5.13;3.70;;;10.10;72.20;;;;;;4973658;28;20057;-80
2021/11/10 00:36:44;;;;;;;6.47;3.50;;;10.10;72.30;;;;;;4974333;28;20065;-80
2021/11/10 00:39:11;;;;;;;4.47;3.53;;;10.10;72.20;;;;;;4974283;28;20038;-75
2021/11/10 00:41:38;;;;;;;7.78;3.88;;;10.10;72.20;;;;;;4987693;28;20457;-76
2021/11/10 00:44:05;;;;;;;5.55;4.00;;;10.10;72.40;;;;;;4989050;28;20053;-74
2021/11/10 00:46:33;;;;;;;6.10;3.63;;;10.10;72.50;;;;;;4973103;28;20043;-80
2021/11/10 00:49:00;;;;;;;5.85;3.58;;;10.10;72.70;;;;;;4973190;28;20506;-75
2021/11/10 00:51:29;;;;;;;4.35;3.22;;;10.10;72.90;;;;;;4973014;28;20968;-81
2021/11/10 00:53:57;;;;;;;6.95;3.70;;;10.00;72.80;;;;;;5004141;28;20499;-81
2021/11/10 00:56:24;;;;;;;3.72;3.30;;;10.10;72.90;;;;;;4974191;28;20045;-75
2021/11/10 00:58:51;;;;;;;6.38;3.40;;;10.10;73.20;;;;;;4989047;28;20062;-78
2021/11/10 01:01:18;;;;;;;6.78;4.82;;;10.10;73.30;;;;;;5004794;28;20395;-80
2021/11/10 01:03:46;;;;;;;9.57;4.38;;;10.00;74.00;;;;;;4989190;28;20054;-81
2021/11/10 01:06:13;;;;;;;5.70;4.03;;;10.00;74.40;;;;;;4972333;28;20031;-80
2021/11/10 01:08:40;;;;;;;6.20;4.57;;;10.00;74.70;;;;;;4972677;28;20395;-72
2021/11/10 01:11:07;;;;;;;6.20;4.30;;;9.90;75.50;;;;;;4973700;28;20046;-80
2021/11/10 01:13:35;;;;;;;8.15;4.53;;;9.90;76.40;;;;;;5003971;28;20046;-77
2021/11/10 01:16:03;;;;;;;7.05;4.40;;;9.90;76.40;;;;;;4972845;28;20062;-78
2021/11/10 01:18:30;;;;;;;6.53;4.32;;;9.80;76.60;;;;;;4972044;28;20038;-78
2021/11/10 01:20:57;;;;;;;6.00;4.00;;;9.80;77.00;;;;;;4971882;28;20076;-74
2021/11/10 01:23:24;;;;;;;8.77;7.03;;;9.80;77.40;;;;;;4972202;28;20038;-78
2021/11/10 01:25:51;;;;;;;10.38;7.63;;;9.70;79.50;;;;;;4988790;28;20053;-73
2021/11/10 01:28:18;;;;;;;10.25;8.23;;;9.60;80.40;;;;;;4972246;28;20057;-72
2021/11/10 01:30:45;;;;;;;13.77;9.02;;;9.50;81.50;;;;;;4972825;28;20038;-72
2021/11/10 01:33:13;;;;;;;15.00;9.93;;;9.50;82.20;;;;;;4987463;28;20043;-76
2021/11/10 01:35:40;;;;;;;12.63;9.18;;;9.40;82.10;;;;;;4956211;28;20046;-75
2021/11/10 01:38:07;;;;;;;11.90;8.88;;;9.40;82.50;;;;;;4973642;28;20058;-73
2021/11/10 01:40:35;;;;;;;12.77;8.82;;;9.40;83.30;;;;;;4972099;28;20115;-79
2021/11/10 01:43:17;;;;;;;12.23;9.50;;;9.30;83.40;;;;;;4988198;28;20519;-73
2021/11/10 01:45:46;;;;;;;12.63;9.27;;;9.30;84.00;;;;;;4972711;28;20039;-78
2021/11/10 01:48:15;;;;;;;14.57;10.50;;;9.30;84.40;;;;;;4972051;28;20126;-73
2021/11/10 01:50:42;;;;;;;11.20;9.65;;;9.30;84.00;;;;;;5003312;28;20053;-77
2021/11/10 01:53:09;;;;;;;16.23;10.95;;;9.30;84.20;;;;;;4987963;28;20045;-80
2021/11/10 01:55:37;;;;;;;15.55;11.00;;;9.20;85.10;;;;;;4971333;28;20050;-77
2021/11/10 01:58:04;;;;;;;12.75;9.93;;;9.20;85.00;;;;;;4972374;28;20065;-77
2021/11/10 02:00:34;;;;;;;11.90;8.32;;;9.20;86.00;;;;;;4971211;28;20064;-73
2021/11/10 02:03:01;;;;;;;11.82;6.55;;;9.20;85.10;;;;;;4972714;28;20602;-72
2021/11/10 02:05:29;;;;;;;7.90;5.57;;;9.20;83.90;;;;;;4973065;28;20087;-78
2021/11/10 02:07:56;;;;;;;7.07;5.35;;;9.20;82.70;;;;;;4970824;28;20039;-78
2021/11/10 02:10:25;;;;;;;8.55;6.05;;;9.30;82.30;;;;;;4973003;28;20039;-73
2021/11/10 02:12:54;;;;;;;7.97;6.07;;;9.30;82.70;;;;;;4971374;28;20050;-78
2021/11/10 02:15:21;;;;;;;7.00;5.03;;;9.20;82.80;;;;;;4972280;28;20130;-80
2021/11/10 02:17:57;;;;;;;8.48;5.28;;;9.30;82.60;;;;;;4971188;28;20530;-74
2021/11/10 02:20:30;;;;;;;8.13;5.63;;;9.20;83.20;;;;;;4973187;28;20046;-73
2021/11/10 02:22:57;;;;;;;10.38;6.07;;;9.20;83.40;;;;;;4971325;28;20038;-77
2021/11/10 02:25:28;;;;;;;8.48;5.63;;;9.10;83.80;;;;;;5003360;28;20391;-76
2021/11/10 02:27:56;;;;;;;7.03;5.72;;;9.10;83.80;;;;;;4972154;28;20125;-73
2021/11/10 02:30:24;;;;;;;8.60;5.72;;;9.10;84.10;;;;;;4972402;28;20035;-78
2021/11/10 02:32:54;;;;;;;8.65;6.85;;;9.10;84.90;;;;;;4986857;28;20057;-77
2021/11/10 02:35:26;;;;;;;13.07;8.40;;;9.10;86.60;;;;;;4972449;28;20073;-73
2021/11/10 02:37:57;;;;;;;11.98;9.68;;;9.00;86.70;;;;;;4987244;28;20138;-74
2021/11/10 02:40:25;;;;;;;15.40;10.27;;;8.90;87.40;;;;;;4971405;28;20038;-77
2021/11/10 02:42:53;;;;;;;16.17;10.25;;;8.90;87.80;;;;;;4987187;28;20052;-73
2021/11/10 02:45:21;;;;;;;14.50;11.02;;;8.90;87.20;;;;;;5002461;28;20062;-73
2021/11/10 02:47:49;;;;;;;27.95;17.52;;;8.90;87.40;;;;;;4971408;28;20038;-73
2021/11/10 02:50:16;;;;;;;20.58;15.55;;;8.90;88.40;;;;;;5002563;28;20123;-75
2021/11/10 02:52:43;;;;;;;19.73;13.70;;;8.90;87.80;;;;;;4986837;28;20070;-73
2021/11/10 02:55:11;;;;;;;14.70;12.00;;;8.90;87.30;;;;;;5003325;28;20045;-77
2021/11/10 02:57:38;;;;;;;16.77;12.32;;;8.90;87.20;;;;;;4971134;28;20051;-77
2021/11/10 03:00:08;;;;;;;15.80;11.63;;;8.90;87.90;;;;;;4972193;28;20043;-73
2021/11/10 03:02:36;;;;;;;15.10;10.80;;;8.90;87.90;;;;;;4971141;28;20031;-77
2021/11/10 03:05:05;;;;;;;13.50;10.07;;;8.90;87.50;;;;;;5002088;28;20047;-73
2021/11/10 03:07:32;;;;;;;11.68;8.23;;;8.90;88.10;;;;;;4971542;28;20452;-74
2021/11/10 03:10:00;;;;;;;14.00;9.25;;;8.90;88.10;;;;;;4991032;28;20045;-78
2021/11/10 03:12:27;;;;;;;13.35;9.52;;;8.90;87.70;;;;;;4976138;28;20031;-74
2021/11/10 03:14:54;;;;;;;11.40;9.05;;;8.90;87.70;;;;;;4975539;28;20046;-77
2021/11/10 03:17:21;;;;;;;11.00;8.88;;;8.90;88.70;;;;;;4974628;28;20051;-77
2021/11/10 03:19:48;;;;;;;11.77;8.68;;;8.90;87.50;;;;;;4974407;28;20134;-74
2021/11/10 03:22:16;;;;;;;9.70;8.07;;;8.90;87.60;;;;;;4975640;28;20035;-73
2021/11/10 03:24:43;;;;;;;12.45;9.15;;;8.90;88.40;;;;;;4973325;28;20054;-77
2021/11/10 03:27:11;;;;;;;11.70;8.15;;;8.80;89.20;;;;;;4974993;28;20043;-77
2021/11/10 03:29:39;;;;;;;11.70;8.40;;;8.80;89.10;;;;;;5005801;28;20039;-77
2021/11/10 03:32:08;;;;;;;13.38;9.48;;;8.80;88.80;;;;;;4975721;28;20046;-77
2021/11/10 03:34:35;;;;;;;9.93;7.75;;;8.80;88.60;;;;;;4973889;28;20066;-74
2021/11/10 03:37:03;;;;;;;11.25;7.28;;;8.80;88.50;;;;;;4975276;28;20470;-77
2021/11/10 03:39:30;;;;;;;11.35;8.07;;;8.80;88.80;;;;;;4974220;28;20051;-73
2021/11/10 03:41:57;;;;;;;9.93;7.75;;;8.80;88.70;;;;;;4990354;28;20054;-73
2021/11/10 03:44:24;;;;;;;9.43;7.35;;;8.80;88.90;;;;;;4974268;28;20049;-77
2021/11/10 03:46:51;;;;;;;9.55;6.82;;;8.80;88.90;;;;;;4973668;28;20137;-77
2021/11/10 03:49:19;;;;;;;10.02;7.15;;;8.80;88.70;;;;;;4974193;28;20038;-77
2021/11/10 03:51:47;;;;;;;9.52;7.15;;;8.90;88.80;;;;;;4974809;28;20039;-77
2021/11/10 03:54:15;;;;;;;9.93;7.43;;;8.90;88.90;;;;;;4974112;28;20041;-74
2021/11/10 03:56:43;;;;;;;9.65;7.03;;;8.90;88.80;;;;;;4974767;28;20503;-73
2021/11/10 03:59:10;;;;;;;10.30;6.55;;;8.90;88.70;;;;;;4973061;28;20059;-75
2021/11/10 04:01:38;;;;;;;9.85;7.78;;;8.90;89.30;;;;;;4989307;28;20038;-75
2021/11/10 04:04:06;;;;;;;10.93;8.02;;;8.90;89.10;;;;;;4989667;28;20514;-77
2021/11/10 04:06:35;;;;;;;12.43;8.07;;;8.90;89.30;;;;;;4973690;28;20403;-77
2021/11/10 04:09:04;;;;;;;13.25;8.65;;;8.80;90.10;;;;;;4989289;28;20041;-73
2021/11/10 04:11:31;;;;;;;12.05;8.23;;;8.60;90.60;;;;;;4975049;28;20046;-73
2021/11/10 04:13:58;;;;;;;11.43;8.02;;;8.50;90.80;;;;;;4974285;28;20058;-74
2021/11/10 04:16:25;;;;;;;10.52;7.82;;;8.50;91.00;;;;;;5005562;28;20058;-77
2021/11/10 04:18:55;;;;;;;10.65;7.32;;;8.50;90.80;;;;;;4975117;28;20142;-73
2021/11/10 04:21:23;;;;;;;10.43;8.05;;;8.50;90.70;;;;;;4973719;28;20118;-78
2021/11/10 04:23:53;;;;;;;10.88;8.30;;;8.60;90.60;;;;;;4975179;28;20035;-77
2021/11/10 04:26:23;;;;;;;10.63;7.75;;;8.60;90.60;;;;;;4974601;28;20071;-77
2021/11/10 04:28:50;;;;;;;15.07;9.77;;;8.60;90.60;;;;;;4975193;28;20043;-77
2021/11/10 04:31:19;;;;;;;13.68;9.00;;;8.60;90.80;;;;;;4956203;28;20491;-77
2021/11/10 04:33:46;;;;;;;13.88;9.07;;;8.60;90.80;;;;;;4973306;28;20049;-73
2021/11/10 04:36:14;;;;;;;12.23;9.57;;;8.50;90.80;;;;;;4972757;28;20058;-73
2021/11/10 04:38:41;;;;;;;12.57;9.10;;;8.50;90.90;;;;;;4973517;28;20057;-77
2021/11/10 04:41:08;;;;;;;10.57;9.45;;;8.50;90.80;;;;;;4973464;28;20125;-77
2021/11/10 04:43:35;;;;;;;10.65;9.18;;;8.50;90.70;;;;;;4972978;28;20057;-77
2021/11/10 04:48:33;;;;;;;11.40;8.68;;;8.50;90.50;;;;;;4973753;28;20066;-77
2021/11/10 04:51:00;;;;;;;13.27;9.15;;;8.50;90.60;;;;;;4972848;28;20050;-73
2021/11/10 04:53:27;;;;;;;11.23;8.95;;;8.60;90.70;;;;;;4957033;28;20039;-73
2021/11/10 04:55:54;;;;;;;11.65;9.40;;;8.60;90.70;;;;;;4974595;28;20050;-76
2021/11/10 04:58:21;;;;;;;10.88;8.70;;;8.60;90.60;;;;;;4972217;28;20043;-78
2021/11/10 05:00:48;;;;;;;11.30;8.55;;;8.60;90.60;;;;;;4973002;28;20126;-77
2021/11/10 05:03:16;;;;;;;12.45;9.93;;;8.60;90.70;;;;;;4972949;28;20499;-74
2021/11/10 05:05:43;;;;;;;11.32;8.70;;;8.60;90.60;;;;;;4988346;28;20123;-73
2021/11/10 05:08:10;;;;;;;10.98;9.25;;;8.60;90.90;;;;;;4973016;28;20031;-77
2021/11/10 05:10:38;;;;;;;11.73;8.35;;;8.60;91.00;;;;;;4973190;28;20039;-73
2021/11/10 05:13:05;;;;;;;10.43;8.68;;;8.60;90.80;;;;;;4972080;28;20046;-72
2021/11/10 05:15:32;;;;;;;9.05;7.50;;;8.60;90.80;;;;;;5004477;28;20499;-74
2021/11/10 05:17:59;;;;;;;12.60;8.73;;;8.60;90.70;;;;;;4974461;28;20697;-74
2021/11/10 05:20:26;;;;;;;10.90;7.45;;;8.60;90.50;;;;;;4988736;28;20043;-73
2021/11/10 05:22:53;;;;;;;12.27;8.55;;;8.60;90.40;;;;;;4972771;28;20054;-77
2021/11/10 05:25:20;;;;;;;11.90;9.73;;;8.60;90.40;;;;;;4971304;28;20057;-77
2021/11/10 05:27:49;;;;;;;13.38;10.13;;;8.60;90.30;;;;;;5004371;28;20562;-77
2021/11/10 05:30:16;;;;;;;9.70;8.40;;;8.60;90.40;;;;;;5002356;28;20031;-79
2021/11/10 05:32:43;;;;;;;13.18;9.80;;;8.60;90.60;;;;;;4973440;28;20122;-72
2021/11/10 05:35:11;;;;;;;12.68;9.77;;;8.60;90.50;;;;;;4971649;28;20138;-73
2021/11/10 05:37:38;;;;;;;13.18;9.15;;;8.60;90.50;;;;;;5019885;28;20054;-77
2021/11/10 05:40:07;;;;;;;11.40;8.25;;;8.60;90.70;;;;;;4973203;28;20060;-74
2021/11/10 05:42:35;;;;;;;10.60;8.10;;;8.50;91.00;;;;;;4987816;28;20051;-73
2021/11/10 05:45:03;;;;;;;13.35;9.77;;;8.50;90.90;;;;;;4988072;28;20061;-74
2021/11/10 05:47:30;;;;;;;10.30;8.52;;;8.50;91.00;;;;;;4972635;28;20031;-74
2021/11/10 05:49:57;;;;;;;10.30;8.63;;;8.50;91.20;;;;;;4973144;28;20609;-73
2021/11/10 05:52:24;;;;;;;12.65;9.20;;;8.50;91.00;;;;;;4972652;28;20031;-74
2021/11/10 05:54:53;;;;;;;10.70;9.05;;;8.40;91.30;;;;;;4972727;28;20219;-72
2021/11/10 05:57:20;;;;;;;11.50;8.95;;;8.40;91.60;;;;;;4973010;28;20427;-73
2021/11/10 05:59:47;;;;;;;11.57;8.52;;;8.40;91.60;;;;;;4972384;28;20541;-72
2021/11/10 06:02:15;;;;;;;14.05;8.63;;;8.40;91.50;;;;;;4988284;28;20046;-74
2021/11/10 06:04:43;;;;;;;12.55;9.35;;;8.40;91.40;;;;;;4973004;28;20057;-73
2021/11/10 06:07:10;;;;;;;9.63;7.80;;;8.40;91.40;;;;;;5003265;28;20069;-77
2021/11/10 06:09:38;;;;;;;12.80;8.48;;;8.50;91.40;;;;;;4971534;28;20035;-77
2021/11/10 06:12:06;;;;;;;10.73;8.57;;;8.50;91.20;;;;;;4971621;28;20042;-78
2021/11/10 06:14:33;;;;;;;10.18;8.18;;;8.50;91.10;;;;;;4987401;28;20534;-79
2021/11/10 06:17:00;;;;;;;11.50;8.93;;;8.50;91.00;;;;;;4973129;28;20054;-75
2021/11/10 06:19:27;;;;;;;13.07;9.25;;;8.50;90.90;;;;;;4971118;28;20038;-75
2021/11/10 06:21:54;;;;;;;11.80;9.48;;;8.50;90.90;;;;;;4971253;28;20062;-80
2021/11/10 06:24:22;;;;;;;12.40;9.13;;;8.50;90.90;;;;;;4971703;28;20476;-77
2021/11/10 06:26:51;;;;;;;11.57;9.13;;;8.50;90.90;;;;;;4987107;28;20043;-79
2021/11/10 06:29:20;;;;;;;11.25;8.32;;;8.50;91.00;;;;;;4955703;28;20049;-75
2021/11/10 06:31:47;;;;;;;15.30;10.60;;;8.50;91.00;;;;;;4971981;28;20046;-75
2021/11/10 06:34:14;;;;;;;11.35;8.30;;;8.50;91.00;;;;;;5003433;28;20109;-75
2021/11/10 06:36:41;;;;;;;11.48;8.98;;;8.50;91.00;;;;;;4971318;28;20049;-74
2021/11/10 06:39:08;;;;;;;12.93;9.57;;;8.50;91.10;;;;;;4971649;28;20053;-73
2021/11/10 06:41:36;;;;;;;11.68;8.75;;;8.50;91.20;;;;;;4970799;28;20045;-76
2021/11/10 06:44:03;;;;;;;11.35;8.70;;;8.50;91.20;;;;;;4987143;28;20069;-79
2021/11/10 06:46:30;;;;;;;13.10;9.23;;;8.60;91.10;;;;;;4970732;28;20126;-80
2021/11/10 06:48:58;;;;;;;10.98;9.80;;;8.60;91.40;;;;;;5001828;28;20498;-79
2021/11/10 06:51:27;;;;;;;14.07;10.55;;;8.60;91.40;;;;;;4987242;28;20066;-78
2021/11/10 06:53:55;;;;;;;14.38;10.65;;;8.50;91.40;;;;;;5003101;28;20042;-76
2021/11/10 06:56:22;;;;;;;15.15;11.52;;;8.60;91.40;;;;;;4986360;28;20047;-74
2021/11/10 06:58:50;;;;;;;15.05;11.45;;;8.60;91.50;;;;;;4962915;28;20089;-73
2021/11/10 07:01:18;;;;;;;16.80;13.82;;;8.60;91.60;;;;;;4985149;28;20118;-77
2021/11/10 07:03:46;;;;;;;19.85;14.73;;;8.50;91.70;;;;;;4964336;28;20094;-76
2021/11/10 07:06:13;;;;;;;20.38;14.68;;;8.50;91.60;;;;;;4968398;28;20125;-74
2021/11/10 07:08:40;;;;;;;20.52;14.25;;;8.50;91.50;;;;;;4998440;28;20039;-78
2021/11/10 07:11:08;;;;;;;15.65;12.85;;;8.60;91.60;;;;;;5001343;28;20039;-77
2021/11/10 07:13:35;;;;;;;19.60;14.77;;;8.60;91.50;;;;;;4986079;28;20500;-78
2021/11/10 07:16:03;;;;;;;18.17;13.07;;;8.60;91.60;;;;;;4997882;28;20054;-76
2021/11/10 07:18:30;;;;;;;16.38;12.30;;;8.50;91.80;;;;;;4971413;28;20439;-77
2021/11/10 07:21:00;;;;;;;14.82;10.98;;;8.50;92.10;;;;;;5000944;28;20444;-73
2021/11/10 07:23:27;;;;;;;15.95;10.65;;;8.50;92.30;;;;;;4969835;28;20039;-76
2021/11/10 07:25:54;;;;;;;16.55;11.90;;;8.40;92.20;;;;;;5002485;28;20110;-75
2021/11/10 07:28:22;;;;;;;17.63;10.38;;;8.40;92.20;;;;;;4968527;28;20126;-78
2021/11/10 07:30:49;;;;;;;16.60;11.43;;;8.40;92.30;;;;;;5002918;28;20526;-76
2021/11/10 07:33:16;;;;;;;14.25;11.13;;;8.40;92.40;;;;;;4986320;28;20051;-73
2021/11/10 07:35:44;;;;;;;14.13;10.52;;;8.40;92.40;;;;;;4969963;28;20618;-73
2021/11/10 07:38:11;;;;;;;12.70;10.23;;;8.50;92.40;;;;;;4985749;28;20053;-74
2021/11/10 07:40:39;;;;;;;15.38;11.38;;;8.50;92.40;;;;;;4968801;28;20039;-78
2021/11/10 07:43:06;;;;;;;16.40;11.52;;;8.50;92.30;;;;;;4969293;28;20127;-74
2021/11/10 07:45:35;;;;;;;13.43;11.10;;;8.50;92.20;;;;;;4970316;28;20043;-78
2021/11/10 07:48:09;;;;;;;15.98;11.30;;;8.60;92.30;;;;;;4999499;28;20046;-77
2021/11/10 07:50:36;;;;;;;14.02;11.15;;;8.60;92.10;;;;;;5002250;28;20059;-74
2021/11/10 07:53:03;;;;;;;11.50;9.43;;;8.60;92.20;;;;;;4971416;28;20506;-78
2021/11/10 07:55:31;;;;;;;14.13;11.07;;;8.60;92.20;;;;;;4973156;28;20070;-76
2021/11/10 07:57:58;;;;;;;13.95;10.23;;;8.60;92.00;;;;;;4989237;28;20125;-78
2021/11/10 08:00:39;;;;;;;10.82;9.30;;;8.70;92.00;;;;;;5005819;28;20053;-78
2021/11/10 08:03:07;;;;;;;14.60;10.55;;;8.70;91.90;;;;;;4972987;28;20046;-76
2021/11/10 08:05:36;;;;;;;10.98;9.43;;;8.80;91.90;;;;;;4986807;28;20039;-77
2021/11/10 08:08:04;;;;;;;14.98;10.95;;;8.80;91.90;;;;;;4974213;28;20103;-75
2021/11/10 08:10:53;;;;;;;13.13;10.23;;;8.80;91.80;;;;;;5004711;28;20054;-75
2021/11/10 08:13:20;;;;;;;12.95;9.32;;;8.80;91.70;;;;;;4972275;28;20094;-78
2021/11/10 08:15:49;;;;;;;13.30;9.63;;;8.80;91.50;;;;;;4973700;28;20047;-78
2021/11/10 08:18:16;;;;;;;12.18;9.52;;;8.90;91.50;;;;;;4973559;28;20047;-78
2021/11/10 08:20:44;;;;;;;10.85;8.77;;;8.90;91.60;;;;;;4974441;28;20049;-77
2021/11/10 08:23:13;;;;;;;13.98;10.15;;;8.90;91.60;;;;;;4972662;28;20039;-76
2021/11/10 08:25:40;;;;;;;14.27;10.27;;;8.90;91.80;;;;;;4974834;28;20035;-78
2021/11/10 08:28:07;;;;;;;15.30;9.20;;;8.90;91.90;;;;;;4988658;28;20956;-77
2021/11/10 08:30:34;;;;;;;13.85;10.98;;;9.00;91.90;;;;;;4975099;28;20049;-77
2021/11/10 08:33:02;;;;;;;13.48;9.57;;;9.00;91.60;;;;;;4974817;28;20571;-75
2021/11/10 08:35:28;;;;;;;10.65;7.82;;;9.10;91.40;;;;;;4989486;28;20057;-76
2021/11/10 08:37:56;;;;;;;10.13;7.70;;;9.10;91.20;;;;;;4957684;28;20407;-73
2021/11/10 08:40:24;;;;;;;10.65;7.72;;;9.20;91.10;;;;;;4974209;28;20034;-75
2021/11/10 08:42:52;;;;;;;12.90;8.77;;;9.20;90.90;;;;;;4988933;28;20055;-77
2021/11/10 08:45:26;;;;;;;16.88;11.70;;;9.20;91.10;;;;;;4973219;28;20051;-72
2021/11/10 08:47:57;;;;;;;12.98;9.48;;;9.20;91.10;;;;;;4973773;28;20109;-73
2021/11/10 08:50:26;;;;;;;7.68;5.72;;;9.20;91.10;;;;;;4972932;28;20045;-72
2021/11/10 08:52:54;;;;;;;9.85;5.95;;;9.20;90.60;;;;;;4974347;28;20514;-73
2021/11/10 08:55:22;;;;;;;7.45;5.88;;;9.20;90.60;;;;;;4973197;28;20046;-72
2021/11/10 08:57:52;;;;;;;9.45;5.93;;;9.20;90.70;;;;;;4972628;28;20043;-79
2021/11/10 09:00:22;;;;;;;8.00;6.20;;;9.20;90.80;;;;;;4974707;28;20039;-78
2021/11/10 09:02:50;;;;;;;9.93;5.50;;;9.30;91.00;;;;;;4973980;28;20053;-77
2021/11/10 09:05:18;;;;;;;9.75;6.63;;;9.30;91.00;;;;;;4989104;28;20054;-78
2021/11/10 09:07:46;;;;;;;8.23;6.25;;;9.40;90.80;;;;;;4972736;28;20050;-73
2021/11/10 09:10:18;;;;;;;12.07;6.88;;;9.40;90.70;;;;;;4972698;28;20030;-76
2021/11/10 09:12:49;;;;;;;11.07;9.00;;;9.40;90.70;;;;;;4971673;28;20066;-80
2021/11/10 09:15:19;;;;;;;11.75;8.73;;;9.40;91.20;;;;;;4972687;28;20114;-77
2021/11/10 09:17:47;;;;;;;13.60;10.30;;;9.30;91.50;;;;;;4974111;28;20043;-78
2021/11/10 09:20:21;;;;;;;12.48;9.88;;;9.30;91.30;;;;;;5004423;28;20042;-73
2021/11/10 09:22:56;;;;;;;12.15;9.93;;;9.30;91.70;;;;;;4973492;28;20047;-74
2021/11/10 09:25:27;;;;;;;11.50;10.07;;;9.30;91.80;;;;;;4987485;28;20054;-73
2021/11/10 09:27:56;;;;;;;11.75;9.68;;;9.30;91.70;;;;;;4972621;28;20035;-76
2021/11/10 09:30:24;;;;;;;12.25;9.48;;;9.40;91.60;;;;;;4987146;28;20111;-80
2021/11/10 09:32:53;;;;;;;13.48;10.77;;;9.40;91.60;;;;;;4975769;28;20049;-79
2021/11/10 09:35:21;;;;;;;14.25;11.43;;;9.40;91.60;;;;;;5006133;28;20542;-78
2021/11/10 09:37:50;;;;;;;14.90;10.93;;;9.30;91.70;;;;;;4973442;28;20542;-80
2021/11/10 09:40:19;;;;;;;12.50;10.43;;;9.30;91.90;;;;;;5003550;28;20051;-76
2021/11/10 09:42:49;;;;;;;12.77;11.18;;;9.20;92.00;;;;;;4974494;28;20066;-74
2021/11/10 09:45:19;;;;;;;15.02;10.85;;;9.30;92.00;;;;;;4973655;28;20037;-74
2021/11/10 09:47:50;;;;;;;14.65;11.25;;;9.30;92.00;;;;;;5001329;28;20116;-73
2021/11/10 09:50:21;;;;;;;16.00;11.20;;;9.40;92.00;;;;;;4973853;28;20074;-78
2021/11/10 09:52:48;;;;;;;16.52;11.82;;;9.30;91.90;;;;;;4971822;28;20031;-74
2021/11/10 09:55:23;;;;;;;;;;;9.20;91.80;;;;;;5003776;28;20045;-76
2021/11/10 09:57:52;;;;;;;15.27;10.82;;;9.20;91.90;;;;;;5002574;28;19945;-74
2021/11/10 10:00:24;;;;;;;12.48;10.23;;;9.30;92.10;;;;;;4972138;28;20439;-71
2021/11/10 10:02:52;;;;;;;14.93;10.05;;;9.40;91.90;;;;;;5002113;28;20061;-80
2021/11/10 10:05:21;;;;;;;11.77;9.88;;;9.40;91.80;;;;;;4954645;28;20073;-74
2021/11/10 10:07:52;;;;;;;13.73;10.05;;;9.50;91.80;;;;;;4971417;28;20525;-75
2021/11/10 10:10:27;;;;;;;14.15;10.02;;;9.60;91.70;;;;;;4973764;28;20125;-77
2021/11/10 10:12:56;;;;;;;14.48;10.35;;;9.70;91.50;;;;;;4970486;28;20038;-75
2021/11/10 10:15:26;;;;;;;14.38;10.25;;;9.80;91.40;;;;;;4971259;28;20054;-76
2021/11/10 10:17:57;;;;;;;12.05;9.77;;;10.00;91.30;;;;;;4970172;28;20055;-74
2021/11/10 10:20:31;;;;;;;9.05;8.07;;;10.10;91.30;;;;;;4987937;28;20121;-72
2021/11/10 10:23:14;;;;;;;11.50;8.73;;;10.30;91.10;;;;;;4971301;28;20042;-77
2021/11/10 10:25:48;;;;;;;11.82;8.13;;;10.40;90.80;;;;;;4972011;28;20061;-77
2021/11/10 10:28:28;;;;;;;10.43;8.13;;;10.50;90.30;;;;;;4972515;28;20068;-73
2021/11/10 10:30:59;;;;;;;12.07;7.55;;;10.50;90.00;;;;;;4972856;28;21361;-76
2021/11/10 10:33:30;;;;;;;11.27;7.40;;;10.40;88.20;;;;;;5002545;28;20038;-72
2021/11/10 10:36:07;;;;;;;8.13;6.50;;;10.50;89.30;;;;;;4971889;28;20138;-81
2021/11/10 10:38:42;;;;;;;9.43;7.47;;;10.50;88.70;;;;;;4971835;28;20047;-78
2021/11/10 10:41:09;;;;;;;;;;;10.50;89.10;;;;;;4971650;28;20043;-72
2021/11/10 10:43:49;;;;;;;11.93;7.22;;;10.50;88.80;;;;;;4970076;28;19930;-73
2021/11/10 10:46:17;;;;;;;11.13;7.90;;;10.50;89.00;;;;;;4971392;28;20118;-71
2021/11/10 10:48:45;;;;;;;10.60;7.93;;;10.50;89.40;;;;;;4972202;28;20042;-71
2021/11/10 10:51:17;;;;;;;10.38;7.60;;;10.50;89.40;;;;;;4972027;28;20039;-74
2021/11/10 10:53:52;;;;;;;10.85;7.70;;;10.50;89.40;;;;;;4972149;28;20053;-72
2021/11/10 10:56:31;;;;;;;8.40;6.88;;;10.50;89.60;;;;;;4970489;28;20384;-75
2021/11/10 10:58:59;;;;;;;8.00;7.15;;;10.60;89.60;;;;;;4971841;28;20495;-74
2021/11/10 11:01:33;;;;;;;6.53;5.55;;;10.60;89.30;;;;;;4970740;28;20554;-74
2021/11/10 11:04:10;;;;;;;10.90;5.53;;;10.60;88.90;;;;;;4970354;28;20043;-74
2021/11/10 11:07:06;;;;;;;8.48;6.40;;;10.70;89.10;;;;;;4972310;28;20043;-76
2021/11/10 11:09:43;;;;;;;7.05;5.47;;;10.80;89.30;;;;;;4969126;28;20047;-78
2021/11/10 11:12:28;;;;;;;8.93;7.18;;;10.80;88.80;;;;;;4971981;28;20042;-76
2021/11/10 11:15:25;;;;;;;8.13;6.07;;;10.90;88.40;;;;;;4970696;28;20031;-74
2021/11/10 11:17:53;;;;;;;9.95;7.13;;;11.00;88.80;;;;;;4970463;28;20055;-71
2021/11/10 11:20:27;;;;;;;7.65;6.50;;;11.00;87.40;;;;;;4970976;28;20527;-72
2021/11/10 11:22:56;;;;;;;7.30;6.53;;;11.00;87.80;;;;;;4970543;28;20054;-75
2021/11/10 11:25:30;;;;;;;7.55;5.25;;;11.10;87.90;;;;;;4986282;28;20047;-79
2021/11/10 11:28:16;;;;;;;7.90;5.30;;;11.00;85.60;;;;;;4970100;28;20571;-74
2021/11/10 11:30:52;;;;;;;7.70;5.40;;;11.00;85.20;;;;;;4974226;28;20037;-76
2021/11/10 11:33:21;;;;;;;6.43;4.78;;;11.10;86.20;;;;;;4974660;28;20466;-70
2021/11/10 11:35:53;;;;;;;7.45;5.45;;;11.10;86.00;;;;;;5006465;28;20055;-72
2021/11/10 11:38:23;;;;;;;6.95;5.22;;;11.20;85.90;;;;;;4974716;28;20093;-74
2021/11/10 11:40:54;;;;;;;7.65;5.60;;;11.20;85.40;;;;;;4990438;28;20043;-77
2021/11/10 11:43:24;;;;;;;7.63;5.32;;;11.20;84.50;;;;;;4973477;28;20043;-76
2021/11/10 11:45:54;;;;;;;7.05;4.78;;;11.10;84.90;;;;;;4975457;28;20042;-75
2021/11/10 11:48:23;;;;;;;6.28;5.13;;;11.00;85.70;;;;;;4975272;28;20050;-77
2021/11/10 11:50:52;;;;;;;15.82;5.72;;;11.00;84.90;;;;;;4974676;28;20046;-74
2021/11/10 11:53:20;;;;;;;7.10;5.70;;;11.00;85.30;;;;;;4973558;28;20133;-75
2021/11/10 11:55:55;;;;;;;9.15;5.55;;;11.10;85.30;;;;;;4973088;28;20043;-75
2021/11/10 11:58:24;;;;;;;11.23;5.10;;;11.00;84.90;;;;;;4973688;28;20097;-75
2021/11/10 12:01:04;;;;;;;8.25;5.20;;;11.00;85.50;;;;;;4973437;28;20042;-73
2021/11/10 12:03:46;;;;;;;5.95;4.97;;;11.10;86.60;;;;;;4971849;28;20050;-76
2021/11/10 12:06:20;;;;;;;6.68;4.35;;;11.10;86.30;;;;;;4968990;28;20051;-75
2021/11/10 12:08:55;;;;;;;7.63;4.60;;;11.10;86.10;;;;;;4955572;28;20398;-73
2021/11/10 12:11:39;;;;;;;6.75;4.78;;;11.10;85.70;;;;;;4972770;28;20399;-75
2021/11/10 12:14:29;;;;;;;;;;;11.20;85.60;;;;;;4973469;28;20035;-73
2021/11/10 12:17:12;;;;;;;8.98;6.28;;;11.20;85.40;;;;;;4969371;28;19930;-73
2021/11/10 12:19:53;;;;;;;9.50;6.68;;;11.30;85.30;;;;;;4972406;28;20126;-75
2021/11/10 12:22:41;;;;;;;11.15;6.75;;;11.30;85.30;;;;;;4974148;28;20047;-76
2021/11/10 12:25:14;;;;;;;11.05;7.00;;;11.30;85.80;;;;;;4975071;28;20097;-77
2021/11/10 12:27:43;;;;;;;9.40;6.43;;;11.30;85.50;;;;;;4973328;28;20050;-76
2021/11/10 12:30:26;;;;;;;11.63;6.63;;;11.30;85.10;;;;;;4972589;28;20046;-77
2021/11/10 12:33:02;;;;;;;9.98;6.95;;;11.30;85.40;;;;;;4971038;28;20040;-73
2021/11/10 12:35:34;;;;;;;10.32;6.78;;;11.30;85.20;;;;;;4985959;28;20402;-73
2021/11/10 12:38:11;;;;;;;8.93;6.68;;;11.30;85.00;;;;;;4975057;28;20042;-76
2021/11/10 12:40:54;;;;;;;7.95;6.50;;;11.40;85.10;;;;;;4973408;28;20495;-75
2021/11/10 12:43:25;;;;;;;8.40;6.43;;;11.40;85.00;;;;;;4978991;28;20042;-76
2021/11/10 12:45:58;;;;;;;8.85;6.65;;;11.40;85.30;;;;;;4974248;28;20114;-76
2021/11/10 12:48:25;;;;;;;10.70;6.63;;;11.40;85.90;;;;;;5006639;28;20099;-77
2021/11/10 12:50:53;;;;;;;9.98;6.60;;;11.40;85.50;;;;;;4974387;28;20045;-76
2021/11/10 12:53:44;;;;;;;10.98;6.68;;;11.40;85.50;;;;;;4972823;28;20496;-77
2021/11/10 12:56:12;;;;;;;9.88;7.03;;;11.40;85.30;;;;;;4972113;28;20054;-73
2021/11/10 12:58:40;;;;;;;9.07;7.35;;;11.40;85.30;;;;;;5003889;28;20042;-77
2021/11/10 13:01:14;;;;;;;9.07;7.10;;;11.40;85.10;;;;;;4974272;28;20047;-76